Etusivu
METAR-TAF:

METAR-TAF

Lentoasemat :

Jersey,

Leveyspiiri: 49-13N, Pituuspiiri: 002-12W, korkeus merenpinnasta: 84 m

Tämänhetkinen sää

Tämä raportti tehtiin 28 minuuttia sitten, kello 18.20 UTC
Tuuli 4 kn lännestä/luoteesta, vaihdellen lännen ja pohjoisen/luoteen välillä
Lämpötila 10°C
Kosteus 76%
Ilmanpaine 1018 hPa
Näkyvyys 10 km tai enemmän
Hajanaisia pilviä 4100 ft:n korkeudessa

METAR: EGJJ 261820Z 30004KT 270V340 9999 SCT041 10/06 Q1018

Aika: 19:48 (18:48 UTC)

Sääennuste

Tämä raportti tehtiin 1 tunti ja 52 minuuttia sitten, kello 16.56 UTC
Ennuste voimassa 26. päivästä klo 18 UTC - 27. päivään klo 03 UTC
Tuuli 6 kn lännestä
Näkyvyys 10 km tai enemmän
Muutamia pilviä 1500 ft:n korkeudessa
Hajanaisia pilviä 4000 ft:n korkeudessa
Tulossa
26. päivästä klo 22 UTC - 26. päivään klo 24 UTC
Tuuli 8 kn kaakosta

TAF: EGJJ 261656Z 2618/2703 27006KT 9999 FEW015 SCT040 BECMG 2622/2624 14008KT

Säähavainnot ja -ennusteet yli 4000 lentoasemalta (METAR- ja TAF-raportit).

Käytössä olevat sääasemat on merkitty karttaan keltaisilla ja punaisilla pisteillä.

Aseta hiiri pisteen päälle nähdäksesi sääaseman nimen.

Klikkaa sitten nähdäksesi säähavainnot ja -ennusteet.

Kartan vaihtaminen: klikkaa mustalla rastilla varustettuja vihreitä pisteitä, niin voit zoomata sisään; viivalla varustettua vihreää pistettä, niin voit zoomata ulos tai vihreitä nuolia, niin pääset viereisille kartoille.


METAR-TAF: